Time;durP1;ratioP1;P1;durP2;ratioP2;P2;SDS_P1;SDS_P2;PMS_P1;PMS_P2;Temp;Humidity;BMP_temperature;BMP_pressure;BME280_temperature;BME280_humidity;BME280_pressure;Samples;Min_cycle;Max_cycle;Signal;HPM_P1;HPM_P2
2023/04/11 00:01:31;;;;;;;13.50;2.40;;;;;;;9.36;83.65;100797.44;4947516;28;20031;-77
2023/04/11 00:03:56;;;;;;;13.10;2.95;;;;;;;9.36;83.23;100792.25;4943418;28;20034;-77
2023/04/11 00:06:23;;;;;;;15.65;2.90;;;;;;;9.36;83.40;100794.00;4952508;28;20028;-77
2023/04/11 00:08:48;;;;;;;9.88;2.80;;;;;;;9.35;83.16;100790.53;4940931;28;20031;-76
2023/04/11 00:11:14;;;;;;;13.82;2.97;;;;;;;9.36;82.59;100809.59;4949569;28;20023;-77
2023/04/11 00:13:41;;;;;;;13.75;3.03;;;;;;;9.34;81.78;100793.19;4952557;28;20023;-76
2023/04/11 00:16:07;;;;;;;13.13;2.97;;;;;;;9.31;82.30;100801.03;4944223;28;20023;-77
2023/04/11 00:18:35;;;;;;;12.20;2.80;;;;;;;9.24;82.12;100797.72;4949035;28;20019;-76
2023/04/11 00:21:00;;;;;;;15.35;3.45;;;;;;;9.18;81.95;100795.25;4949556;28;20133;-77
2023/04/11 00:23:25;;;;;;;12.18;3.45;;;;;;;9.15;82.26;100790.97;4947977;28;20071;-77
2023/04/11 00:25:51;;;;;;;13.05;3.00;;;;;;;9.15;81.90;100798.75;4951819;28;20039;-76
2023/04/11 00:28:16;;;;;;;16.15;3.00;;;;;;;9.13;82.15;100797.09;4946413;28;20047;-77
2023/04/11 00:30:41;;;;;;;15.10;3.42;;;;;;;9.12;81.86;100804.00;4950832;28;20030;-76
2023/04/11 00:33:06;;;;;;;14.80;3.90;;;;;;;9.10;81.58;100806.66;4950760;28;20438;-77
2023/04/11 00:35:36;;;;;;;15.13;3.72;;;;;;;9.06;81.84;100796.34;4950374;28;20024;-76
2023/04/11 00:38:02;;;;;;;18.35;3.60;;;;;;;9.01;82.15;100809.41;4949933;28;20069;-77
2023/04/11 00:40:28;;;;;;;14.13;3.30;;;;;;;8.96;81.77;100806.91;4946869;28;20058;-77
2023/04/11 00:42:55;;;;;;;12.52;3.22;;;;;;;8.94;82.10;100813.88;4952489;28;20105;-77
2023/04/11 00:45:21;;;;;;;10.63;3.00;;;;;;;8.92;82.22;100812.19;4957583;28;20154;-77
2023/04/11 00:47:46;;;;;;;15.50;3.30;;;;;;;8.87;82.60;100806.22;4955110;28;20449;-77
2023/04/11 00:50:15;;;;;;;12.57;2.78;;;;;;;8.84;82.52;100820.13;4956088;28;20023;-77
2023/04/11 00:52:45;;;;;;;15.52;3.45;;;;;;;8.78;82.40;100817.63;4965396;28;20030;-76
2023/04/11 00:55:10;;;;;;;16.90;3.60;;;;;;;8.77;82.50;100815.94;4955601;28;20032;-76
2023/04/11 00:57:36;;;;;;;14.98;4.63;;;;;;;8.73;82.81;100804.75;4954987;28;20046;-77
2023/04/11 01:00:02;;;;;;;17.48;3.92;;;;;;;8.71;82.26;100805.69;4956720;28;20050;-77
2023/04/11 01:02:28;;;;;;;16.77;3.63;;;;;;;8.70;82.66;100809.16;4956845;28;20050;-77
2023/04/11 01:04:55;;;;;;;14.73;3.40;;;;;;;8.70;82.58;100816.94;4960394;28;20466;-77
2023/04/11 01:07:22;;;;;;;15.40;3.60;;;;;;;8.67;82.32;100809.22;4957455;28;20027;-77
2023/04/11 01:09:48;;;;;;;14.52;3.70;;;;;;;8.63;82.50;100809.25;4952923;28;20023;-77
2023/04/11 01:12:14;;;;;;;12.95;3.35;;;;;;;8.59;82.57;100812.78;4955607;28;20031;-76
2023/04/11 01:14:40;;;;;;;13.35;3.63;;;;;;;8.57;82.36;100814.56;4956246;28;20114;-77
2023/04/11 01:17:06;;;;;;;16.13;3.63;;;;;;;8.57;82.64;100809.38;4952281;28;20118;-76
2023/04/11 01:19:32;;;;;;;13.57;3.38;;;;;;;8.59;82.96;100807.59;4953730;28;20106;-76
2023/04/11 01:21:58;;;;;;;14.68;3.47;;;;;;;8.62;82.73;100815.34;4956755;28;20035;-77
2023/04/11 01:24:23;;;;;;;16.35;3.75;;;;;;;8.63;82.79;100813.59;4956306;28;20098;-76
2023/04/11 01:26:49;;;;;;;15.65;3.50;;;;;;;8.61;82.33;100805.84;4956793;28;20027;-76
2023/04/11 01:29:14;;;;;;;17.25;3.75;;;;;;;8.63;82.24;100817.03;4955762;28;20030;-77
2023/04/11 01:31:40;;;;;;;15.70;3.30;;;;;;;8.62;82.30;100804.97;4953912;28;20121;-77
2023/04/11 01:34:06;;;;;;;16.20;3.20;;;;;;;8.63;82.53;100806.66;4955402;28;20084;-77
2023/04/11 01:36:31;;;;;;;14.30;3.60;;;;;;;8.63;82.01;100808.38;4953935;28;20066;-77
2023/04/11 01:38:57;;;;;;;22.52;3.65;;;;;;;8.62;82.29;100806.72;4955830;28;20062;-77
2023/04/11 01:41:24;;;;;;;11.88;2.90;;;;;;;8.65;81.76;100822.19;4954846;28;20494;-76
2023/04/11 01:43:49;;;;;;;14.73;3.50;;;;;;;8.63;82.11;100818.75;4957382;28;20028;-77
2023/04/11 01:46:15;;;;;;;19.90;3.25;;;;;;;8.58;82.29;100821.44;4953464;28;20031;-77
2023/04/11 01:48:41;;;;;;;14.82;3.20;;;;;;;8.56;82.55;100832.75;4958271;28;20015;-77
2023/04/11 01:51:07;;;;;;;12.77;2.90;;;;;;;8.56;82.30;100833.59;4955543;28;20098;-76
2023/04/11 01:53:32;;;;;;;11.50;2.60;;;;;;;8.55;82.05;100834.47;4956400;28;20046;-77
2023/04/11 01:55:57;;;;;;;19.08;3.38;;;;;;;8.53;82.27;100844.03;4952175;28;20026;-76
2023/04/11 01:58:23;;;;;;;16.83;3.17;;;;;;;8.50;82.27;100838.91;4954257;28;20735;-76
2023/04/11 02:00:48;;;;;;;19.23;2.95;;;;;;;8.48;82.35;100841.50;4949604;28;20176;-76
2023/04/11 02:03:13;;;;;;;13.43;3.00;;;;;;;8.43;82.11;100843.31;4954503;28;20489;-77
2023/04/11 02:05:39;;;;;;;16.33;3.17;;;;;;;8.41;82.38;100846.78;4954693;28;20079;-76
2023/04/11 02:08:04;;;;;;;15.85;3.25;;;;;;;8.38;82.67;100849.41;4952261;28;20085;-76
2023/04/11 02:10:30;;;;;;;18.15;3.10;;;;;;;8.37;82.39;100852.91;4949641;28;20371;-76
2023/04/11 02:12:55;;;;;;;14.90;3.25;;;;;;;8.33;82.46;100850.38;4951081;28;20034;-76
2023/04/11 02:15:21;;;;;;;15.70;2.78;;;;;;;8.33;82.69;100850.38;4953348;28;20027;-77
2023/04/11 02:17:46;;;;;;;18.00;2.72;;;;;;;8.31;82.55;100848.66;4949513;28;20110;-77
2023/04/11 02:20:12;;;;;;;15.73;2.90;;;;;;;8.32;82.77;100853.84;4952731;28;20470;-76
2023/04/11 02:22:38;;;;;;;16.80;3.03;;;;;;;8.32;82.72;100851.25;4952395;28;20046;-77
2023/04/11 02:25:05;;;;;;;17.58;3.00;;;;;;;8.30;82.63;100850.41;4949036;28;20031;-76
2023/04/11 02:27:30;;;;;;;19.17;3.17;;;;;;;8.29;82.57;100861.66;4946137;28;20539;-76
2023/04/11 02:29:56;;;;;;;14.77;2.90;;;;;;;8.27;82.50;100863.41;4936115;28;20178;-76
2023/04/11 02:32:21;;;;;;;20.98;2.90;;;;;;;8.27;82.82;100860.00;4947993;28;20031;-76
2023/04/11 02:34:46;;;;;;;15.55;3.25;;;;;;;8.27;82.69;100871.19;4950159;28;20343;-77
2023/04/11 02:37:11;;;;;;;14.95;2.75;;;;;;;8.30;82.36;100857.31;4950798;28;20405;-76
2023/04/11 02:39:37;;;;;;;15.52;3.28;;;;;;;8.30;82.48;100853.00;4948207;28;20378;-76
2023/04/11 02:42:02;;;;;;;15.48;2.80;;;;;;;8.28;82.21;100857.34;4945317;28;20059;-76
2023/04/11 02:44:28;;;;;;;15.70;2.90;;;;;;;8.32;82.34;100861.63;4955554;28;20359;-77
2023/04/11 02:46:53;;;;;;;12.85;2.85;;;;;;;8.30;82.52;100858.19;4953228;28;20035;-76
2023/04/11 02:49:19;;;;;;;17.55;3.25;;;;;;;8.32;82.33;100866.81;4950925;28;20023;-77
2023/04/11 02:51:44;;;;;;;14.73;2.95;;;;;;;8.32;82.43;100861.63;4952811;28;20027;-77
2023/04/11 02:54:10;;;;;;;16.95;3.33;;;;;;;8.32;82.25;100865.94;4953266;28;20032;-76
2023/04/11 02:56:37;;;;;;;16.85;2.80;;;;;;;8.31;81.86;100872.00;4954383;28;20042;-76
2023/04/11 02:59:04;;;;;;;15.88;2.88;;;;;;;8.28;82.01;100864.28;4951087;28;20027;-76
2023/04/11 03:01:29;;;;;;;15.48;2.88;;;;;;;8.24;81.63;100868.66;4949216;28;20027;-77
2023/04/11 03:03:54;;;;;;;14.73;3.03;;;;;;;8.23;81.38;100876.47;4950056;28;20109;-76
2023/04/11 03:06:20;;;;;;;15.40;2.92;;;;;;;8.18;81.79;100867.00;4952251;28;20023;-76
2023/04/11 03:08:46;;;;;;;14.10;2.67;;;;;;;8.17;81.54;100873.06;4952928;28;20508;-76
2023/04/11 03:11:11;;;;;;;13.50;2.53;;;;;;;8.13;81.61;100875.75;4952246;28;20015;-76
2023/04/11 03:13:38;;;;;;;13.25;3.15;;;;;;;8.12;81.23;100879.22;4954245;28;20019;-76
2023/04/11 03:16:03;;;;;;;13.57;1.95;;;;;;;8.05;81.44;100883.63;4949649;28;20053;-76
2023/04/11 03:18:29;;;;;;;14.90;2.50;;;;;;;8.01;81.20;100885.41;4948305;28;20066;-77
2023/04/11 03:20:54;;;;;;;12.40;2.60;;;;;;;7.99;81.27;100884.56;4949580;28;20051;-77
2023/04/11 03:23:20;;;;;;;12.68;2.55;;;;;;;7.95;81.44;100892.38;4948506;28;20031;-77
2023/04/11 03:25:46;;;;;;;10.82;2.45;;;;;;;7.92;81.34;100893.31;4952538;28;20469;-76
2023/04/11 03:28:12;;;;;;;12.10;2.28;;;;;;;7.92;81.40;100888.13;4948975;28;20078;-76
2023/04/11 03:30:39;;;;;;;13.05;1.77;;;;;;;7.92;81.68;100898.47;4946615;28;20055;-76
2023/04/11 03:33:05;;;;;;;10.88;2.47;;;;;;;7.94;81.42;100895.88;4947377;28;20106;-76
2023/04/11 03:35:31;;;;;;;12.57;2.30;;;;;;;7.94;81.54;100901.91;4952034;28;20106;-76
2023/04/11 03:37:56;;;;;;;10.63;2.00;;;;;;;7.97;81.16;100901.88;4946180;28;20102;-76
2023/04/11 03:40:22;;;;;;;14.30;2.45;;;;;;;7.99;81.31;100902.72;4949998;28;20067;-76
2023/04/11 03:42:48;;;;;;;13.48;1.90;;;;;;;8.01;81.06;100907.84;4951379;28;20041;-76
2023/04/11 03:45:14;;;;;;;13.05;2.38;;;;;;;8.01;80.87;100913.91;4948699;28;20031;-76
2023/04/11 03:47:39;;;;;;;9.52;1.58;;;;;;;8.04;80.50;100913.84;4950461;28;20031;-76
2023/04/11 03:50:06;;;;;;;11.45;2.10;;;;;;;8.03;79.97;100906.94;4949011;28;20020;-76
2023/04/11 03:52:32;;;;;;;9.95;1.63;;;;;;;8.01;79.97;100911.31;4951189;28;20431;-76
2023/04/11 03:54:57;;;;;;;11.27;1.52;;;;;;;8.03;79.44;100911.28;4950350;28;20031;-76
2023/04/11 03:57:25;;;;;;;10.80;1.73;;;;;;;8.02;79.81;100918.22;4952886;28;20506;-76
2023/04/11 03:59:51;;;;;;;13.98;1.60;;;;;;;7.99;79.50;100915.66;4952766;28;20020;-77
2023/04/11 04:02:16;;;;;;;10.98;1.40;;;;;;;8.01;79.59;100929.47;4948068;28;20441;-76
2023/04/11 04:04:45;;;;;;;7.75;1.35;;;;;;;8.00;79.30;100927.75;4950310;28;20126;-77
2023/04/11 04:07:11;;;;;;;7.22;1.40;;;;;;;8.01;79.41;100939.81;4952469;28;20038;-76
2023/04/11 04:09:37;;;;;;;8.13;1.45;;;;;;;8.03;79.53;100927.69;4953614;28;20027;-76
2023/04/11 04:12:03;;;;;;;8.68;1.50;;;;;;;8.04;79.44;100928.56;4952403;28;20034;-77
2023/04/11 04:14:28;;;;;;;9.30;1.60;;;;;;;8.02;78.99;100920.81;4950818;28;20493;-77
2023/04/11 04:16:53;;;;;;;11.48;1.58;;;;;;;8.04;79.44;100928.56;4949485;28;20149;-77
2023/04/11 04:19:19;;;;;;;11.70;1.58;;;;;;;8.05;79.29;100920.75;4948587;28;20479;-77
2023/04/11 04:21:44;;;;;;;10.45;1.30;;;;;;;8.05;78.81;100930.25;4950310;28;20042;-76
2023/04/11 04:24:11;;;;;;;8.70;1.55;;;;;;;8.01;78.68;100936.34;4946806;28;20051;-77
2023/04/11 04:26:37;;;;;;;8.95;1.70;;;;;;;7.97;78.64;100937.28;4950859;28;20030;-76
2023/04/11 04:29:05;;;;;;;9.43;1.55;;;;;;;7.93;78.43;100939.06;4951353;28;20094;-76
2023/04/11 04:31:33;;;;;;;13.00;1.58;;;;;;;7.86;79.17;100940.88;4944504;28;20034;-76
2023/04/11 04:34:07;;;;;;;9.60;1.30;;;;;;;7.86;79.22;100937.41;4941101;28;20023;-76
2023/04/11 04:36:44;;;;;;;10.23;1.83;;;;;;;7.83;78.84;100945.25;4943757;28;20058;-76
2023/04/11 04:39:10;;;;;;;7.60;1.40;;;;;;;7.79;78.87;100953.91;4938016;28;20027;-76
2023/04/11 04:41:36;;;;;;;9.82;1.42;;;;;;;7.75;78.92;100959.13;4948688;28;20027;-76
2023/04/11 04:44:03;;;;;;;7.30;1.27;;;;;;;7.72;78.71;100956.56;4948420;28;20107;-76
2023/04/11 04:46:35;;;;;;;4.97;1.00;;;;;;;7.68;78.85;100962.69;4948885;28;20034;-76
2023/04/11 04:49:00;;;;;;;9.95;1.48;;;;;;;7.65;79.13;100962.72;4949738;28;20505;-77
2023/04/11 04:51:28;;;;;;;8.77;1.40;;;;;;;7.63;79.19;100959.28;4947562;28;20027;-76
2023/04/11 04:53:56;;;;;;;8.68;1.58;;;;;;;7.58;79.31;100961.06;4941168;28;20023;-77
2023/04/11 04:56:21;;;;;;;7.25;1.20;;;;;;;7.55;79.44;100967.13;4949355;28;20030;-76
2023/04/11 04:58:47;;;;;;;8.57;1.88;;;;;;;7.53;79.70;100978.38;4943888;28;20075;-76
2023/04/11 05:01:12;;;;;;;11.70;1.35;;;;;;;7.51;79.76;100982.72;4946157;28;20032;-77
2023/04/11 05:03:37;;;;;;;8.77;1.77;;;;;;;7.48;79.63;100991.38;4941595;28;20040;-76
2023/04/11 05:06:03;;;;;;;13.13;1.95;;;;;;;7.47;79.92;100997.41;4943380;28;20031;-77
2023/04/11 05:08:28;;;;;;;11.68;1.75;;;;;;;7.44;79.87;100997.44;4944674;28;20042;-76
2023/04/11 05:10:53;;;;;;;11.02;1.50;;;;;;;7.43;79.59;100994.00;4944133;28;20470;-77
2023/04/11 05:13:18;;;;;;;7.65;1.63;;;;;;;7.43;79.56;101006.06;4948288;28;20027;-76
2023/04/11 05:15:48;;;;;;;6.43;1.63;;;;;;;7.40;80.04;101004.38;4947271;28;20039;-77
2023/04/11 05:18:13;;;;;;;9.52;1.50;;;;;;;7.41;79.63;101006.09;4946041;28;20072;-76
2023/04/11 05:20:39;;;;;;;10.48;1.65;;;;;;;7.37;80.23;101012.19;4941635;28;20470;-77
2023/04/11 05:23:04;;;;;;;8.00;1.33;;;;;;;7.38;79.91;101018.22;4943828;28;20143;-76
2023/04/11 05:25:29;;;;;;;8.93;1.73;;;;;;;7.38;80.05;101010.47;4947710;28;20529;-76
2023/04/11 05:27:55;;;;;;;7.75;1.30;;;;;;;7.37;79.77;101014.78;4942138;28;20126;-76
2023/04/11 05:30:20;;;;;;;4.97;1.00;;;;;;;7.38;79.66;101019.06;4946935;28;20383;-76
2023/04/11 05:32:46;;;;;;;9.45;1.60;;;;;;;7.37;79.89;101014.78;4951325;28;20056;-76
2023/04/11 05:35:11;;;;;;;9.05;1.20;;;;;;;7.36;79.59;101019.97;4951054;28;20081;-76
2023/04/11 05:37:37;;;;;;;9.15;1.55;;;;;;;7.36;80.13;101025.16;4952749;28;20035;-77
2023/04/11 05:40:02;;;;;;;7.65;1.33;;;;;;;7.36;80.12;101028.56;4948706;28;20035;-76
2023/04/11 05:42:28;;;;;;;7.93;1.35;;;;;;;7.38;79.80;101032.00;4958616;28;20042;-76
2023/04/11 05:44:53;;;;;;;9.93;1.40;;;;;;;7.38;79.83;101032.00;4953370;28;20031;-76
2023/04/11 05:47:18;;;;;;;7.85;1.30;;;;;;;7.39;79.75;101043.25;4954314;28;20032;-76
2023/04/11 05:49:43;;;;;;;11.07;1.60;;;;;;;7.39;79.75;101044.09;4952916;28;20042;-76
2023/04/11 05:52:09;;;;;;;6.00;1.20;;;;;;;7.39;79.86;101057.03;4949828;28;20493;-76
2023/04/11 05:54:35;;;;;;;7.80;1.63;;;;;;;7.41;80.02;101055.28;4951551;28;20029;-76
2023/04/11 05:57:02;;;;;;;8.35;1.30;;;;;;;7.41;79.98;101050.09;4951076;28;20038;-77
2023/04/11 05:59:30;;;;;;;9.63;1.30;;;;;;;7.43;80.28;101055.25;4956461;28;20325;-76
2023/04/11 06:01:56;;;;;;;7.47;1.45;;;;;;;7.46;80.38;101059.56;4947524;28;20039;-77
2023/04/11 06:04:21;;;;;;;9.77;1.45;;;;;;;7.52;79.94;101065.53;4944932;28;20489;-77
2023/04/11 06:06:47;;;;;;;10.38;1.60;;;;;;;7.60;80.04;101068.91;4946234;28;20067;-76
2023/04/11 06:09:12;;;;;;;8.98;1.70;;;;;;;7.67;79.98;101067.13;4945256;28;20034;-77
2023/04/11 06:11:37;;;;;;;11.80;1.55;;;;;;;7.72;80.02;101078.28;4942937;28;20111;-77
2023/04/11 06:14:03;;;;;;;8.80;1.45;;;;;;;7.79;79.60;101083.41;4944933;28;20066;-77
2023/04/11 06:16:30;;;;;;;8.90;1.80;;;;;;;7.85;79.45;101083.38;4944639;28;20039;-77
2023/04/11 06:18:55;;;;;;;8.18;1.63;;;;;;;7.90;79.15;101077.25;4944330;28;20042;-76
2023/04/11 06:21:21;;;;;;;6.90;1.40;;;;;;;7.91;79.33;101083.28;4945306;28;20039;-76
2023/04/11 06:23:46;;;;;;;11.18;1.50;;;;;;;7.93;79.26;101080.69;4944297;28;20169;-76
2023/04/11 06:26:11;;;;;;;8.40;1.30;;;;;;;7.90;78.65;101090.22;4937788;28;20031;-76
2023/04/11 06:28:36;;;;;;;10.90;1.48;;;;;;;7.94;78.90;101085.00;4955891;28;20097;-76
2023/04/11 06:31:02;;;;;;;8.48;1.48;;;;;;;8.02;78.35;101102.19;4955093;28;20470;-76
2023/04/11 06:33:27;;;;;;;7.60;1.40;;;;;;;8.10;77.94;101090.84;4940365;28;20031;-76
2023/04/11 06:35:52;;;;;;;7.28;1.70;;;;;;;8.06;77.85;101087.44;4934730;28;20031;-76
2023/04/11 06:38:18;;;;;;;6.63;1.27;;;;;;;8.00;77.79;101088.38;4946473;28;20039;-76
2023/04/11 06:40:43;;;;;;;8.98;1.40;;;;;;;7.98;77.63;101092.72;4946126;28;20039;-76
2023/04/11 06:43:08;;;;;;;8.10;1.50;;;;;;;7.95;78.40;101087.56;4944923;28;20043;-76
2023/04/11 06:45:33;;;;;;;10.65;1.65;;;;;;;7.96;78.11;101091.88;4938105;28;20035;-76
2023/04/11 06:47:58;;;;;;;6.97;1.38;;;;;;;7.97;78.40;101093.59;4947204;28;20381;-76
2023/04/11 06:50:24;;;;;;;9.43;1.85;;;;;;;7.98;78.02;101100.50;4950669;28;20035;-77
2023/04/11 06:52:49;;;;;;;9.55;2.00;;;;;;;8.00;78.07;101103.91;4950475;28;20031;-76
2023/04/11 06:55:14;;;;;;;8.38;1.40;;;;;;;8.02;77.96;101101.31;4948042;28;20170;-76
2023/04/11 06:57:42;;;;;;;13.07;1.80;;;;;;;8.04;78.08;101095.22;4949049;28;20110;-77
2023/04/11 07:00:08;;;;;;;8.30;1.85;;;;;;;8.10;77.78;101101.22;4950635;28;20375;-76
2023/04/11 07:02:34;;;;;;;8.68;2.28;;;;;;;8.12;77.74;101118.44;4961328;28;20033;-77
2023/04/11 07:05:00;;;;;;;8.18;1.40;;;;;;;8.14;77.15;101110.69;4948531;28;20043;-76
2023/04/11 07:07:26;;;;;;;8.88;1.67;;;;;;;8.16;76.68;101122.72;4947695;28;20027;-76
2023/04/11 07:09:51;;;;;;;9.73;1.70;;;;;;;8.18;76.88;101122.75;4950048;28;20023;-76
2023/04/11 07:12:17;;;;;;;9.95;1.90;;;;;;;8.21;76.20;101117.50;4953558;28;20027;-76
2023/04/11 07:14:42;;;;;;;6.88;1.50;;;;;;;8.22;76.39;101116.63;4952363;28;20550;-76
2023/04/11 07:17:07;;;;;;;9.65;1.90;;;;;;;8.26;76.44;101125.25;4953047;28;20043;-76
2023/04/11 07:19:32;;;;;;;10.60;1.35;;;;;;;8.32;75.82;101125.16;4951691;28;20031;-76
2023/04/11 07:21:59;;;;;;;7.75;1.20;;;;;;;8.37;75.67;101132.91;4949284;28;20059;-76
2023/04/11 07:24:24;;;;;;;8.18;1.50;;;;;;;8.44;75.11;101139.69;4943141;28;20034;-75
2023/04/11 07:26:52;;;;;;;7.15;1.40;;;;;;;8.49;74.93;101137.97;4944199;28;20035;-76
2023/04/11 07:29:17;;;;;;;6.45;1.42;;;;;;;8.57;75.33;101136.09;4942304;28;20448;-76
2023/04/11 07:31:43;;;;;;;10.00;1.45;;;;;;;8.67;75.00;101130.81;4946800;28;20134;-76
2023/04/11 07:34:09;;;;;;;9.45;1.60;;;;;;;8.76;74.98;101135.88;4945382;28;20023;-76
2023/04/11 07:36:34;;;;;;;7.80;1.80;;;;;;;8.83;73.49;101137.50;4943707;28;20035;-75
2023/04/11 07:38:59;;;;;;;7.20;1.30;;;;;;;8.85;73.23;101137.47;4944372;28;20078;-76
2023/04/11 07:41:25;;;;;;;9.20;1.55;;;;;;;8.90;72.63;101136.53;4945252;28;20402;-76
2023/04/11 07:43:50;;;;;;;6.45;1.15;;;;;;;8.96;72.25;101149.44;4944896;28;20061;-76
2023/04/11 07:46:15;;;;;;;6.97;1.17;;;;;;;8.99;72.30;101152.88;4941655;28;20221;-75
2023/04/11 07:48:41;;;;;;;6.60;1.38;;;;;;;9.00;72.38;101149.41;4945904;28;20023;-75
2023/04/11 07:51:07;;;;;;;8.30;1.30;;;;;;;9.03;72.47;101154.53;4945283;28;20154;-75
2023/04/11 07:53:32;;;;;;;6.15;1.30;;;;;;;9.05;72.14;101163.16;4942815;28;20118;-75
2023/04/11 07:55:58;;;;;;;6.90;1.50;;;;;;;9.08;71.22;101163.09;4943836;28;20063;-75
2023/04/11 07:58:23;;;;;;;6.00;1.38;;;;;;;9.09;71.77;101155.31;4945023;28;20054;-76
2023/04/11 08:00:49;;;;;;;5.63;1.30;;;;;;;9.13;70.85;101145.72;4945915;28;20089;-75
2023/04/11 08:03:15;;;;;;;10.20;1.30;;;;;;;9.17;69.82;101163.00;4946939;28;20426;-76
2023/04/11 08:05:41;;;;;;;8.13;1.42;;;;;;;9.19;69.90;101161.22;4947766;28;20031;-76
2023/04/11 08:08:06;;;;;;;7.47;1.50;;;;;;;9.29;70.47;101166.28;4944410;28;20078;-76
2023/04/11 08:10:32;;;;;;;5.95;1.27;;;;;;;9.37;69.66;101169.63;4944541;28;20055;-75
2023/04/11 08:12:57;;;;;;;8.13;1.40;;;;;;;9.41;69.26;101203.31;4944590;28;20035;-76
2023/04/11 08:15:23;;;;;;;6.15;1.30;;;;;;;9.46;68.84;101186.81;4944923;28;20110;-76
2023/04/11 08:17:50;;;;;;;8.18;1.30;;;;;;;9.49;68.37;101182.41;4943091;28;20386;-76
2023/04/11 08:20:15;;;;;;;6.53;1.27;;;;;;;9.47;67.11;101184.16;4942810;28;20134;-75
2023/04/11 08:22:43;;;;;;;8.63;1.40;;;;;;;9.48;68.03;101185.88;4945426;28;20028;-76
2023/04/11 08:25:10;;;;;;;7.68;1.40;;;;;;;9.50;66.32;101186.72;4943670;28;20086;-75
2023/04/11 08:27:36;;;;;;;5.65;1.17;;;;;;;9.47;66.95;101202.34;4946359;28;20039;-75
2023/04/11 08:30:03;;;;;;;5.90;1.52;;;;;;;9.48;67.01;101191.06;4947316;28;20031;-76
2023/04/11 08:32:28;;;;;;;9.00;1.75;;;;;;;9.49;67.57;101190.19;4944487;28;20032;-76
2023/04/11 08:34:53;;;;;;;6.75;1.30;;;;;;;9.52;67.03;101203.13;4943400;28;20042;-75
2023/04/11 08:37:19;;;;;;;7.68;1.50;;;;;;;9.56;66.39;101197.00;4945757;28;20512;-76
2023/04/11 08:39:44;;;;;;;10.95;1.40;;;;;;;9.57;65.66;101201.31;4945246;28;20041;-76
2023/04/11 08:42:22;;;;;;;5.38;1.10;;;;;;;9.57;66.92;101206.50;4946164;28;20035;-75
2023/04/11 08:44:53;;;;;;;7.97;1.50;;;;;;;9.54;66.13;101214.38;4933394;28;20461;-75
2023/04/11 08:47:18;;;;;;;6.70;1.23;;;;;;;9.46;65.18;101216.22;4942396;28;20534;-76
2023/04/11 08:49:43;;;;;;;5.18;1.33;;;;;;;9.50;64.81;101220.47;4945297;28;20134;-75
2023/04/11 08:52:09;;;;;;;4.32;0.90;;;;;;;9.62;65.06;101213.38;4946956;28;20748;-75
2023/04/11 08:54:34;;;;;;;10.10;1.52;;;;;;;9.66;64.89;101217.66;4942369;28;20113;-76
2023/04/11 08:56:59;;;;;;;7.00;1.35;;;;;;;9.59;63.96;101223.81;4944392;28;20070;-76
2023/04/11 08:59:26;;;;;;;6.47;1.30;;;;;;;9.60;63.30;101212.53;4941040;28;20039;-75
2023/04/11 09:01:51;;;;;;;8.30;1.42;;;;;;;9.66;63.14;101207.25;4942261;28;20122;-76
2023/04/11 09:04:16;;;;;;;4.47;1.00;;;;;;;9.72;62.59;101207.16;4946356;28;20035;-76
2023/04/11 09:06:57;;;;;;;8.23;1.30;;;;;;;9.80;63.66;101207.88;4947084;28;20030;-76
2023/04/11 09:09:29;;;;;;;5.47;1.10;;;;;;;9.77;62.92;101213.13;4944389;28;20549;-75
2023/04/11 09:11:55;;;;;;;10.90;1.30;;;;;;;9.78;62.81;101201.00;4947863;28;20027;-75
2023/04/11 09:14:24;;;;;;;6.32;0.90;;;;;;;9.78;60.47;101212.25;4946296;28;20031;-76
2023/04/11 09:17:00;;;;;;;5.82;1.10;;;;;;;9.84;61.76;101214.75;4945838;28;20031;-76
2023/04/11 09:19:28;;;;;;;6.55;1.20;;;;;;;9.86;60.40;101207.78;4947153;28;20032;-76
2023/04/11 09:21:55;;;;;;;6.82;0.95;;;;;;;9.93;59.93;101225.84;4948608;28;20492;-76
2023/04/11 09:24:21;;;;;;;6.43;1.23;;;;;;;9.97;60.42;101211.94;4947651;28;20030;-76
2023/04/11 09:26:47;;;;;;;5.18;0.95;;;;;;;9.98;58.91;101211.06;4931940;28;20636;-76
2023/04/11 09:29:37;;;;;;;4.22;1.02;;;;;;;10.07;61.81;101218.72;4945717;28;20056;-76
2023/04/11 09:32:02;;;;;;;5.97;0.90;;;;;;;10.11;58.31;101214.31;4946609;28;20050;-76
2023/04/11 09:34:28;;;;;;;4.68;1.05;;;;;;;10.15;58.63;101209.00;4932639;28;20491;-75
2023/04/11 09:36:54;;;;;;;3.70;1.02;;;;;;;10.27;56.85;101222.66;4947523;28;20390;-76
2023/04/11 09:39:20;;;;;;;5.10;1.10;;;;;;;10.34;57.93;101221.69;4945475;28;20069;-75
2023/04/11 09:41:45;;;;;;;3.88;1.08;;;;;;;10.37;57.35;101221.63;4945888;28;20122;-75
2023/04/11 09:44:11;;;;;;;4.10;0.90;;;;;;;10.48;58.10;101211.06;4946414;28;20062;-75
2023/04/11 09:46:54;;;;;;;8.10;1.13;;;;;;;10.62;58.10;101223.78;4944856;28;20679;-76
2023/04/11 09:49:21;;;;;;;4.35;0.90;;;;;;;10.74;56.49;101226.16;4942660;28;20043;-75
2023/04/11 09:51:47;;;;;;;7.88;1.30;;;;;;;10.85;58.07;101223.31;4941600;28;20042;-75
2023/04/11 09:54:14;;;;;;;5.20;0.80;;;;;;;10.97;55.38;101230.00;4936296;28;20027;-75
2023/04/11 09:56:41;;;;;;;6.70;1.23;;;;;;;10.94;55.82;101227.47;4940789;28;20059;-75
2023/04/11 09:59:06;;;;;;;6.65;1.10;;;;;;;10.89;55.68;101226.72;4940658;28;20394;-76
2023/04/11 10:01:32;;;;;;;6.60;1.10;;;;;;;10.86;55.69;101217.22;4940319;28;20032;-76
2023/04/11 10:03:59;;;;;;;6.78;1.00;;;;;;;10.88;56.04;101230.22;4943756;28;21305;-75
2023/04/11 10:06:40;;;;;;;4.60;0.82;;;;;;;10.95;56.18;101228.34;4945219;28;20469;-75
2023/04/11 10:09:07;;;;;;;5.63;0.82;;;;;;;11.03;55.24;101224.69;4939548;28;20028;-75
2023/04/11 10:11:32;;;;;;;4.35;0.70;;;;;;;11.20;54.89;101221.69;4940146;28;20482;-77
2023/04/11 10:13:57;;;;;;;6.00;1.30;;;;;;;11.35;54.37;101225.72;4937004;28;20042;-77
2023/04/11 10:16:24;;;;;;;5.18;1.08;;;;;;;11.45;54.65;101241.09;4942204;28;20035;-77
2023/04/11 10:19:18;;;;;;;6.40;1.10;;;;;;;11.43;54.10;101224.69;4928403;28;20054;-77
2023/04/11 10:21:45;;;;;;;5.35;1.15;;;;;;;11.37;52.82;101223.94;4939519;28;20483;-77
2023/04/11 10:24:14;;;;;;;6.90;1.10;;;;;;;11.34;52.94;101233.56;4935942;28;20027;-77
2023/04/11 10:26:58;;;;;;;3.67;0.93;;;;;;;11.30;54.57;101235.38;4938925;28;20031;-77
2023/04/11 10:29:26;;;;;;;5.88;1.10;;;;;;;11.36;54.25;101234.38;4922123;28;20050;-76
2023/04/11 10:32:13;;;;;;;5.78;1.30;;;;;;;11.39;55.89;101224.75;4937780;28;20482;-77
2023/04/11 10:34:59;;;;;;;6.55;1.08;;;;;;;11.46;55.27;101229.81;4937230;28;20036;-76
2023/04/11 10:37:35;;;;;;;7.75;1.40;;;;;;;11.50;55.61;101226.25;4937951;28;20039;-77
2023/04/11 10:40:10;;;;;;;4.63;1.00;;;;;;;11.53;55.29;101236.59;4935787;28;20046;-76
2023/04/11 10:42:43;;;;;;;7.35;1.15;;;;;;;11.36;55.22;101226.56;4935021;28;20046;-77
2023/04/11 10:45:23;;;;;;;6.70;1.35;;;;;;;11.18;56.20;101233.03;4937797;28;20498;-77
2023/04/11 10:47:55;;;;;;;6.23;1.27;;;;;;;11.11;56.49;101250.53;4933764;28;20203;-76
2023/04/11 10:50:27;;;;;;;8.80;1.30;;;;;;;11.13;55.94;101227.06;4936274;28;20983;-77
2023/04/11 10:52:54;;;;;;;6.70;1.20;;;;;;;11.16;57.23;101224.41;4942012;28;20035;-77
2023/04/11 10:55:20;;;;;;;6.22;1.08;;;;;;;11.24;54.86;101238.13;4943864;28;20064;-77
2023/04/11 10:58:07;;;;;;;4.20;1.20;;;;;;;11.28;55.02;101234.53;4941317;28;20150;-76
2023/04/11 11:00:51;;;;;;;5.60;1.00;;;;;;;11.23;55.54;101252.88;4934557;28;20043;-77
2023/04/11 11:03:21;;;;;;;4.68;1.05;;;;;;;11.23;54.37;101239.00;4938751;28;20512;-77
2023/04/11 11:05:58;;;;;;;4.73;0.70;;;;;;;11.23;54.06;101239.84;4936273;28;20039;-77
2023/04/11 11:08:29;;;;;;;4.80;1.10;;;;;;;11.28;52.10;101247.56;4937993;28;20793;-77
2023/04/11 11:11:01;;;;;;;5.97;0.85;;;;;;;11.29;49.97;101244.06;4936045;28;20038;-77
2023/04/11 11:13:43;;;;;;;6.80;0.98;;;;;;;11.44;52.22;101236.81;4940035;28;20043;-77
2023/04/11 11:16:13;;;;;;;5.40;0.90;;;;;;;11.60;48.94;101243.38;4936778;28;20037;-76
2023/04/11 11:18:39;;;;;;;2.85;0.65;;;;;;;11.69;46.93;101253.59;4937752;28;20055;-76
2023/04/11 11:21:04;;;;;;;7.70;0.88;;;;;;;11.76;48.87;101248.22;4941305;28;20062;-76
2023/04/11 11:23:30;;;;;;;6.40;1.20;;;;;;;11.77;48.15;101244.72;4941076;28;20467;-75
2023/04/11 11:25:57;;;;;;;5.00;0.82;;;;;;;11.73;48.13;101243.09;4938829;28;20033;-76
2023/04/11 11:28:23;;;;;;;4.18;0.77;;;;;;;11.75;48.10;101256.94;4944348;28;20047;-77